sensor_id;sensor_type;location;lat;lon;timestamp;temperature;humidity
40538;DHT22;27925;41.874;12.526;2023-09-12T00:00:54;24.60;67.70
40538;DHT22;27925;41.874;12.526;2023-09-12T00:03:21;24.70;67.70
40538;DHT22;27925;41.874;12.526;2023-09-12T00:05:54;24.70;67.70
40538;DHT22;27925;41.874;12.526;2023-09-12T00:08:20;24.70;67.00
40538;DHT22;27925;41.874;12.526;2023-09-12T00:10:46;24.70;67.90
40538;DHT22;27925;41.874;12.526;2023-09-12T00:13:12;24.60;67.70
40538;DHT22;27925;41.874;12.526;2023-09-12T00:15:37;24.60;67.90
40538;DHT22;27925;41.874;12.526;2023-09-12T00:18:03;24.60;67.70
40538;DHT22;27925;41.874;12.526;2023-09-12T00:20:29;24.60;67.50
40538;DHT22;27925;41.874;12.526;2023-09-12T00:22:55;24.50;67.90
40538;DHT22;27925;41.874;12.526;2023-09-12T00:25:21;24.50;68.30
40538;DHT22;27925;41.874;12.526;2023-09-12T00:27:47;24.50;68.30
40538;DHT22;27925;41.874;12.526;2023-09-12T00:30:16;24.50;68.50
40538;DHT22;27925;41.874;12.526;2023-09-12T00:32:42;24.50;68.10
40538;DHT22;27925;41.874;12.526;2023-09-12T00:35:08;24.50;68.20
40538;DHT22;27925;41.874;12.526;2023-09-12T00:37:33;24.40;67.70
40538;DHT22;27925;41.874;12.526;2023-09-12T00:39:59;24.40;67.60
40538;DHT22;27925;41.874;12.526;2023-09-12T00:42:25;24.40;67.60
40538;DHT22;27925;41.874;12.526;2023-09-12T00:44:52;24.40;67.40
40538;DHT22;27925;41.874;12.526;2023-09-12T00:47:18;24.30;67.00
40538;DHT22;27925;41.874;12.526;2023-09-12T00:49:44;24.30;66.60
40538;DHT22;27925;41.874;12.526;2023-09-12T00:52:11;24.30;66.80
40538;DHT22;27925;41.874;12.526;2023-09-12T00:54:37;24.30;66.50
40538;DHT22;27925;41.874;12.526;2023-09-12T00:57:03;24.20;66.30
40538;DHT22;27925;41.874;12.526;2023-09-12T00:59:29;24.20;66.40
40538;DHT22;27925;41.874;12.526;2023-09-12T01:01:55;24.10;66.30
40538;DHT22;27925;41.874;12.526;2023-09-12T01:04:22;24.20;66.20
40538;DHT22;27925;41.874;12.526;2023-09-12T01:06:48;24.10;66.10
40538;DHT22;27925;41.874;12.526;2023-09-12T01:09:14;24.10;65.90
40538;DHT22;27925;41.874;12.526;2023-09-12T01:11:40;24.00;65.90
40538;DHT22;27925;41.874;12.526;2023-09-12T01:14:06;24.00;65.90
40538;DHT22;27925;41.874;12.526;2023-09-12T01:16:32;24.00;65.70
40538;DHT22;27925;41.874;12.526;2023-09-12T01:18:58;24.00;65.60
40538;DHT22;27925;41.874;12.526;2023-09-12T01:29:38;23.80;64.80
40538;DHT22;27925;41.874;12.526;2023-09-12T01:32:04;23.80;65.20
40538;DHT22;27925;41.874;12.526;2023-09-12T01:34:30;23.70;64.90
40538;DHT22;27925;41.874;12.526;2023-09-12T01:36:56;23.80;65.00
40538;DHT22;27925;41.874;12.526;2023-09-12T01:39:21;23.70;64.60
40538;DHT22;27925;41.874;12.526;2023-09-12T01:41:48;23.80;64.50
40538;DHT22;27925;41.874;12.526;2023-09-12T01:44:15;23.80;64.40
40538;DHT22;27925;41.874;12.526;2023-09-12T01:46:42;23.80;64.00
40538;DHT22;27925;41.874;12.526;2023-09-12T01:49:09;23.80;63.90
40538;DHT22;27925;41.874;12.526;2023-09-12T01:51:36;23.70;63.90
40538;DHT22;27925;41.874;12.526;2023-09-12T01:54:03;23.60;63.90
40538;DHT22;27925;41.874;12.526;2023-09-12T01:56:30;23.60;63.90
40538;DHT22;27925;41.874;12.526;2023-09-12T01:58:56;23.60;64.00
40538;DHT22;27925;41.874;12.526;2023-09-12T02:01:22;23.50;63.80
40538;DHT22;27925;41.874;12.526;2023-09-12T02:03:47;23.50;63.80
40538;DHT22;27925;41.874;12.526;2023-09-12T02:06:13;23.50;63.80
40538;DHT22;27925;41.874;12.526;2023-09-12T02:08:39;23.50;63.70
40538;DHT22;27925;41.874;12.526;2023-09-12T02:11:04;23.50;63.80
40538;DHT22;27925;41.874;12.526;2023-09-12T02:13:30;23.50;63.80
40538;DHT22;27925;41.874;12.526;2023-09-12T02:16:00;23.40;63.40
40538;DHT22;27925;41.874;12.526;2023-09-12T02:18:26;23.30;63.60
40538;DHT22;27925;41.874;12.526;2023-09-12T02:20:51;23.30;63.50
40538;DHT22;27925;41.874;12.526;2023-09-12T02:23:17;23.30;63.30
40538;DHT22;27925;41.874;12.526;2023-09-12T02:25:43;23.20;63.20
40538;DHT22;27925;41.874;12.526;2023-09-12T02:28:08;23.30;63.30
40538;DHT22;27925;41.874;12.526;2023-09-12T02:30:37;23.30;63.10
40538;DHT22;27925;41.874;12.526;2023-09-12T02:33:03;23.30;63.00
40538;DHT22;27925;41.874;12.526;2023-09-12T02:35:29;23.30;62.80
40538;DHT22;27925;41.874;12.526;2023-09-12T02:37:54;23.30;62.80
40538;DHT22;27925;41.874;12.526;2023-09-12T02:40:20;23.30;62.60
40538;DHT22;27925;41.874;12.526;2023-09-12T02:42:46;23.30;62.70
40538;DHT22;27925;41.874;12.526;2023-09-12T02:45:11;23.30;62.60
40538;DHT22;27925;41.874;12.526;2023-09-12T02:47:37;23.30;62.70
40538;DHT22;27925;41.874;12.526;2023-09-12T02:50:03;23.20;62.70
40538;DHT22;27925;41.874;12.526;2023-09-12T02:52:29;23.20;62.70
40538;DHT22;27925;41.874;12.526;2023-09-12T02:54:54;23.20;62.80
40538;DHT22;27925;41.874;12.526;2023-09-12T02:57:20;23.20;62.90
40538;DHT22;27925;41.874;12.526;2023-09-12T02:59:47;23.10;62.90
40538;DHT22;27925;41.874;12.526;2023-09-12T03:02:12;23.10;62.60
40538;DHT22;27925;41.874;12.526;2023-09-12T03:04:38;23.10;62.70
40538;DHT22;27925;41.874;12.526;2023-09-12T03:07:04;23.10;62.70
40538;DHT22;27925;41.874;12.526;2023-09-12T03:09:30;23.10;62.80
40538;DHT22;27925;41.874;12.526;2023-09-12T03:11:55;23.10;63.10
40538;DHT22;27925;41.874;12.526;2023-09-12T03:14:21;23.00;63.00
40538;DHT22;27925;41.874;12.526;2023-09-12T03:16:47;23.00;63.20
40538;DHT22;27925;41.874;12.526;2023-09-12T03:19:12;23.00;63.20
40538;DHT22;27925;41.874;12.526;2023-09-12T03:21:38;23.00;63.10
40538;DHT22;27925;41.874;12.526;2023-09-12T03:24:04;23.00;63.20
40538;DHT22;27925;41.874;12.526;2023-09-12T03:26:30;22.90;62.90
40538;DHT22;27925;41.874;12.526;2023-09-12T03:28:56;22.90;63.50
40538;DHT22;27925;41.874;12.526;2023-09-12T03:31:22;22.90;64.10
40538;DHT22;27925;41.874;12.526;2023-09-12T03:33:48;22.80;64.40
40538;DHT22;27925;41.874;12.526;2023-09-12T03:36:16;22.80;64.70
40538;DHT22;27925;41.874;12.526;2023-09-12T03:38:43;22.80;65.20
40538;DHT22;27925;41.874;12.526;2023-09-12T03:41:09;22.80;65.20
40538;DHT22;27925;41.874;12.526;2023-09-12T03:43:34;22.70;65.50
40538;DHT22;27925;41.874;12.526;2023-09-12T03:46:00;22.60;66.00
40538;DHT22;27925;41.874;12.526;2023-09-12T03:48:26;22.60;66.10
40538;DHT22;27925;41.874;12.526;2023-09-12T03:50:51;22.50;66.40
40538;DHT22;27925;41.874;12.526;2023-09-12T03:53:17;22.40;66.60
40538;DHT22;27925;41.874;12.526;2023-09-12T03:55:43;22.30;67.00
40538;DHT22;27925;41.874;12.526;2023-09-12T03:58:09;22.40;67.20
40538;DHT22;27925;41.874;12.526;2023-09-12T04:00:35;22.40;67.00
40538;DHT22;27925;41.874;12.526;2023-09-12T04:03:00;22.40;66.90
40538;DHT22;27925;41.874;12.526;2023-09-12T04:05:26;22.40;66.60
40538;DHT22;27925;41.874;12.526;2023-09-12T04:07:52;22.40;66.50
40538;DHT22;27925;41.874;12.526;2023-09-12T04:10:22;22.40;66.40
40538;DHT22;27925;41.874;12.526;2023-09-12T04:12:47;22.40;66.10
40538;DHT22;27925;41.874;12.526;2023-09-12T04:15:13;22.40;66.40
40538;DHT22;27925;41.874;12.526;2023-09-12T04:17:39;22.50;66.60
40538;DHT22;27925;41.874;12.526;2023-09-12T04:20:05;22.40;66.60
40538;DHT22;27925;41.874;12.526;2023-09-12T04:22:31;22.50;67.20
40538;DHT22;27925;41.874;12.526;2023-09-12T04:24:57;22.50;66.30
40538;DHT22;27925;41.874;12.526;2023-09-12T04:27:22;22.40;66.40
40538;DHT22;27925;41.874;12.526;2023-09-12T04:29:48;22.40;66.50
40538;DHT22;27925;41.874;12.526;2023-09-12T04:32:14;22.30;66.40
40538;DHT22;27925;41.874;12.526;2023-09-12T04:34:44;22.30;66.60
40538;DHT22;27925;41.874;12.526;2023-09-12T04:37:10;22.20;66.50
40538;DHT22;27925;41.874;12.526;2023-09-12T04:39:35;22.20;66.40
40538;DHT22;27925;41.874;12.526;2023-09-12T04:42:01;22.20;66.50
40538;DHT22;27925;41.874;12.526;2023-09-12T04:44:29;22.20;66.40
40538;DHT22;27925;41.874;12.526;2023-09-12T04:46:54;22.00;66.60
40538;DHT22;27925;41.874;12.526;2023-09-12T04:49:21;22.00;66.60
40538;DHT22;27925;41.874;12.526;2023-09-12T04:51:46;22.00;66.80
40538;DHT22;27925;41.874;12.526;2023-09-12T04:54:12;22.00;66.60
40538;DHT22;27925;41.874;12.526;2023-09-12T04:56:38;21.90;66.50
40538;DHT22;27925;41.874;12.526;2023-09-12T04:59:04;21.90;66.30
40538;DHT22;27925;41.874;12.526;2023-09-12T05:01:29;21.90;66.20
40538;DHT22;27925;41.874;12.526;2023-09-12T05:03:55;22.00;66.10
40538;DHT22;27925;41.874;12.526;2023-09-12T05:06:21;22.00;65.80
40538;DHT22;27925;41.874;12.526;2023-09-12T05:08:46;21.90;65.70
40538;DHT22;27925;41.874;12.526;2023-09-12T05:11:12;21.90;65.60
40538;DHT22;27925;41.874;12.526;2023-09-12T05:13:38;21.90;65.60
40538;DHT22;27925;41.874;12.526;2023-09-12T05:16:03;21.90;65.60
40538;DHT22;27925;41.874;12.526;2023-09-12T05:18:29;22.00;65.00
40538;DHT22;27925;41.874;12.526;2023-09-12T05:20:55;22.00;65.10
40538;DHT22;27925;41.874;12.526;2023-09-12T05:23:21;22.00;64.60
40538;DHT22;27925;41.874;12.526;2023-09-12T05:25:47;22.00;64.50
40538;DHT22;27925;41.874;12.526;2023-09-12T05:28:12;22.00;64.50
40538;DHT22;27925;41.874;12.526;2023-09-12T05:30:42;22.00;64.40
40538;DHT22;27925;41.874;12.526;2023-09-12T05:33:08;22.00;64.40
40538;DHT22;27925;41.874;12.526;2023-09-12T05:35:34;22.00;64.30
40538;DHT22;27925;41.874;12.526;2023-09-12T05:37:59;22.00;64.30
40538;DHT22;27925;41.874;12.526;2023-09-12T05:40:25;21.90;64.50
40538;DHT22;27925;41.874;12.526;2023-09-12T05:42:51;22.00;64.70
40538;DHT22;27925;41.874;12.526;2023-09-12T05:45:16;22.00;64.40
40538;DHT22;27925;41.874;12.526;2023-09-12T05:47:42;22.10;64.50
40538;DHT22;27925;41.874;12.526;2023-09-12T05:50:08;22.10;64.50
40538;DHT22;27925;41.874;12.526;2023-09-12T05:52:34;22.40;64.10
40538;DHT22;27925;41.874;12.526;2023-09-12T05:54:59;22.70;63.90
40538;DHT22;27925;41.874;12.526;2023-09-12T05:57:25;23.10;63.40
40538;DHT22;27925;41.874;12.526;2023-09-12T05:59:51;23.30;62.40
40538;DHT22;27925;41.874;12.526;2023-09-12T06:02:17;23.60;62.30
40538;DHT22;27925;41.874;12.526;2023-09-12T06:04:43;23.80;61.80
40538;DHT22;27925;41.874;12.526;2023-09-12T06:07:09;23.90;61.30
40538;DHT22;27925;41.874;12.526;2023-09-12T06:09:35;24.10;60.70
40538;DHT22;27925;41.874;12.526;2023-09-12T06:12:02;24.40;60.50
40538;DHT22;27925;41.874;12.526;2023-09-12T06:14:27;24.60;60.00
40538;DHT22;27925;41.874;12.526;2023-09-12T06:16:53;24.70;59.50
40538;DHT22;27925;41.874;12.526;2023-09-12T06:19:19;25.00;59.00
40538;DHT22;27925;41.874;12.526;2023-09-12T06:21:45;25.10;58.40
40538;DHT22;27925;41.874;12.526;2023-09-12T06:24:19;25.40;58.00
40538;DHT22;27925;41.874;12.526;2023-09-12T06:26:46;25.60;57.40
40538;DHT22;27925;41.874;12.526;2023-09-12T06:29:14;25.70;56.90
40538;DHT22;27925;41.874;12.526;2023-09-12T06:31:40;25.90;56.70
40538;DHT22;27925;41.874;12.526;2023-09-12T06:34:07;26.20;55.90
40538;DHT22;27925;41.874;12.526;2023-09-12T06:36:33;26.40;55.60
40538;DHT22;27925;41.874;12.526;2023-09-12T06:38:59;26.50;55.30
40538;DHT22;27925;41.874;12.526;2023-09-12T06:41:25;26.70;54.60
40538;DHT22;27925;41.874;12.526;2023-09-12T06:43:52;26.70;54.30
40538;DHT22;27925;41.874;12.526;2023-09-12T06:46:18;26.70;54.30
40538;DHT22;27925;41.874;12.526;2023-09-12T06:48:44;26.70;54.00
40538;DHT22;27925;41.874;12.526;2023-09-12T06:51:11;26.70;53.70
40538;DHT22;27925;41.874;12.526;2023-09-12T06:53:37;26.70;53.80
40538;DHT22;27925;41.874;12.526;2023-09-12T06:56:03;26.70;53.50
40538;DHT22;27925;41.874;12.526;2023-09-12T06:58:29;26.80;53.40
40538;DHT22;27925;41.874;12.526;2023-09-12T07:00:55;27.10;53.20
40538;DHT22;27925;41.874;12.526;2023-09-12T07:03:21;27.20;52.80
40538;DHT22;27925;41.874;12.526;2023-09-12T07:05:48;27.30;52.60
40538;DHT22;27925;41.874;12.526;2023-09-12T07:08:14;27.20;52.70
40538;DHT22;27925;41.874;12.526;2023-09-12T07:10:46;27.30;52.40
40538;DHT22;27925;41.874;12.526;2023-09-12T07:13:12;27.20;52.50
40538;DHT22;27925;41.874;12.526;2023-09-12T07:15:38;27.30;52.60
40538;DHT22;27925;41.874;12.526;2023-09-12T07:18:04;27.30;52.20
40538;DHT22;27925;41.874;12.526;2023-09-12T07:20:32;27.40;52.20
40538;DHT22;27925;41.874;12.526;2023-09-12T07:22:58;27.50;51.90
40538;DHT22;27925;41.874;12.526;2023-09-12T07:25:23;27.50;51.70
40538;DHT22;27925;41.874;12.526;2023-09-12T07:27:50;27.60;51.50
40538;DHT22;27925;41.874;12.526;2023-09-12T07:30:16;27.70;52.00
40538;DHT22;27925;41.874;12.526;2023-09-12T07:32:41;27.70;51.20
40538;DHT22;27925;41.874;12.526;2023-09-12T07:35:07;27.70;51.00
40538;DHT22;27925;41.874;12.526;2023-09-12T07:37:33;27.70;51.20
40538;DHT22;27925;41.874;12.526;2023-09-12T07:39:59;27.80;51.40
40538;DHT22;27925;41.874;12.526;2023-09-12T07:42:24;27.80;51.20
40538;DHT22;27925;41.874;12.526;2023-09-12T07:44:50;27.80;51.30
40538;DHT22;27925;41.874;12.526;2023-09-12T07:47:16;27.70;51.10
40538;DHT22;27925;41.874;12.526;2023-09-12T07:49:42;27.70;51.20
40538;DHT22;27925;41.874;12.526;2023-09-12T07:52:08;27.70;51.20
40538;DHT22;27925;41.874;12.526;2023-09-12T07:54:34;27.70;51.20
40538;DHT22;27925;41.874;12.526;2023-09-12T07:56:59;27.60;51.10
40538;DHT22;27925;41.874;12.526;2023-09-12T07:59:25;27.60;51.20
40538;DHT22;27925;41.874;12.526;2023-09-12T08:01:51;27.50;51.10
40538;DHT22;27925;41.874;12.526;2023-09-12T08:04:17;27.40;51.20
40538;DHT22;27925;41.874;12.526;2023-09-12T08:06:43;27.30;51.40
40538;DHT22;27925;41.874;12.526;2023-09-12T08:09:09;27.30;51.50
40538;DHT22;27925;41.874;12.526;2023-09-12T08:11:35;27.20;51.60
40538;DHT22;27925;41.874;12.526;2023-09-12T08:14:01;27.20;51.80
40538;DHT22;27925;41.874;12.526;2023-09-12T08:16:27;27.10;51.80
40538;DHT22;27925;41.874;12.526;2023-09-12T08:18:53;27.00;51.80
40538;DHT22;27925;41.874;12.526;2023-09-12T08:21:19;27.00;52.10
40538;DHT22;27925;41.874;12.526;2023-09-12T08:23:44;26.90;52.10
40538;DHT22;27925;41.874;12.526;2023-09-12T08:26:11;26.90;52.30
40538;DHT22;27925;41.874;12.526;2023-09-12T08:28:37;26.90;52.40
40538;DHT22;27925;41.874;12.526;2023-09-12T08:31:02;26.80;52.60
40538;DHT22;27925;41.874;12.526;2023-09-12T08:33:28;26.80;52.50
40538;DHT22;27925;41.874;12.526;2023-09-12T08:35:54;26.80;52.50
40538;DHT22;27925;41.874;12.526;2023-09-12T08:38:20;26.90;52.60
40538;DHT22;27925;41.874;12.526;2023-09-12T08:40:51;26.90;52.70
40538;DHT22;27925;41.874;12.526;2023-09-12T08:43:18;26.90;52.60
40538;DHT22;27925;41.874;12.526;2023-09-12T08:45:45;26.90;52.30
40538;DHT22;27925;41.874;12.526;2023-09-12T08:48:12;26.80;52.30
40538;DHT22;27925;41.874;12.526;2023-09-12T08:50:38;26.90;52.40
40538;DHT22;27925;41.874;12.526;2023-09-12T08:53:04;26.90;52.20
40538;DHT22;27925;41.874;12.526;2023-09-12T08:55:31;27.00;52.00
40538;DHT22;27925;41.874;12.526;2023-09-12T08:58:05;26.90;52.00
40538;DHT22;27925;41.874;12.526;2023-09-12T09:00:31;26.90;51.70
40538;DHT22;27925;41.874;12.526;2023-09-12T09:02:57;26.90;51.60
40538;DHT22;27925;41.874;12.526;2023-09-12T09:05:24;26.90;51.50
40538;DHT22;27925;41.874;12.526;2023-09-12T09:07:51;26.90;51.50
40538;DHT22;27925;41.874;12.526;2023-09-12T09:10:18;26.90;51.40
40538;DHT22;27925;41.874;12.526;2023-09-12T09:12:45;27.00;51.20
40538;DHT22;27925;41.874;12.526;2023-09-12T09:15:26;27.00;51.20
40538;DHT22;27925;41.874;12.526;2023-09-12T09:17:54;27.00;51.00
40538;DHT22;27925;41.874;12.526;2023-09-12T09:20:31;27.10;51.00
40538;DHT22;27925;41.874;12.526;2023-09-12T09:23:05;27.20;50.80
40538;DHT22;27925;41.874;12.526;2023-09-12T09:25:36;27.30;50.20
40538;DHT22;27925;41.874;12.526;2023-09-12T09:28:05;27.30;49.50
40538;DHT22;27925;41.874;12.526;2023-09-12T09:30:45;27.40;49.40
40538;DHT22;27925;41.874;12.526;2023-09-12T09:33:11;27.40;49.40
40538;DHT22;27925;41.874;12.526;2023-09-12T09:35:38;27.50;49.40
40538;DHT22;27925;41.874;12.526;2023-09-12T09:38:06;27.50;49.20
40538;DHT22;27925;41.874;12.526;2023-09-12T09:40:33;27.60;49.50
40538;DHT22;27925;41.874;12.526;2023-09-12T09:43:00;27.60;49.50
40538;DHT22;27925;41.874;12.526;2023-09-12T09:45:27;27.70;49.40
40538;DHT22;27925;41.874;12.526;2023-09-12T09:47:57;27.80;49.30
40538;DHT22;27925;41.874;12.526;2023-09-12T09:50:24;27.80;48.80
40538;DHT22;27925;41.874;12.526;2023-09-12T09:52:56;27.90;49.00
40538;DHT22;27925;41.874;12.526;2023-09-12T09:55:23;27.90;47.60
40538;DHT22;27925;41.874;12.526;2023-09-12T09:57:49;28.00;48.50
40538;DHT22;27925;41.874;12.526;2023-09-12T10:00:19;28.00;48.20
40538;DHT22;27925;41.874;12.526;2023-09-12T10:02:47;28.10;48.00
40538;DHT22;27925;41.874;12.526;2023-09-12T10:05:15;28.20;47.80
40538;DHT22;27925;41.874;12.526;2023-09-12T10:07:51;28.30;47.50
40538;DHT22;27925;41.874;12.526;2023-09-12T10:10:18;28.40;47.30
40538;DHT22;27925;41.874;12.526;2023-09-12T10:12:52;28.50;47.10
40538;DHT22;27925;41.874;12.526;2023-09-12T10:15:19;28.60;46.90
40538;DHT22;27925;41.874;12.526;2023-09-12T10:17:47;28.60;46.30
40538;DHT22;27925;41.874;12.526;2023-09-12T10:20:19;28.70;46.40
40538;DHT22;27925;41.874;12.526;2023-09-12T10:23:34;28.70;46.20
40538;DHT22;27925;41.874;12.526;2023-09-12T10:25:50;28.80;45.00
40538;DHT22;27925;41.874;12.526;2023-09-12T10:28:17;28.90;46.30
40538;DHT22;27925;41.874;12.526;2023-09-12T10:30:44;29.00;46.20
40538;DHT22;27925;41.874;12.526;2023-09-12T10:33:11;29.00;46.20
40538;DHT22;27925;41.874;12.526;2023-09-12T10:35:38;29.00;46.20
40538;DHT22;27925;41.874;12.526;2023-09-12T10:38:05;29.10;46.30
40538;DHT22;27925;41.874;12.526;2023-09-12T10:40:36;29.10;46.00
40538;DHT22;27925;41.874;12.526;2023-09-12T10:43:03;29.20;46.20
40538;DHT22;27925;41.874;12.526;2023-09-12T10:45:35;29.20;45.70
40538;DHT22;27925;41.874;12.526;2023-09-12T10:48:02;29.30;45.90
40538;DHT22;27925;41.874;12.526;2023-09-12T10:50:28;29.40;45.60
40538;DHT22;27925;41.874;12.526;2023-09-12T10:52:54;29.40;45.70
40538;DHT22;27925;41.874;12.526;2023-09-12T10:55:20;29.50;45.50
40538;DHT22;27925;41.874;12.526;2023-09-12T10:58:05;29.60;45.30
40538;DHT22;27925;41.874;12.526;2023-09-12T11:00:31;29.60;45.20
40538;DHT22;27925;41.874;12.526;2023-09-12T11:02:59;29.60;45.30
40538;DHT22;27925;41.874;12.526;2023-09-12T11:08:01;29.80;45.30
40538;DHT22;27925;41.874;12.526;2023-09-12T11:10:27;29.90;45.30
40538;DHT22;27925;41.874;12.526;2023-09-12T11:12:54;29.90;45.30
40538;DHT22;27925;41.874;12.526;2023-09-12T11:15:24;30.00;45.50
40538;DHT22;27925;41.874;12.526;2023-09-12T11:18:03;30.10;45.60
40538;DHT22;27925;41.874;12.526;2023-09-12T11:20:53;30.20;44.10
40538;DHT22;27925;41.874;12.526;2023-09-12T11:23:24;30.30;43.40
40538;DHT22;27925;41.874;12.526;2023-09-12T11:26:11;30.40;43.90
40538;DHT22;27925;41.874;12.526;2023-09-12T11:28:39;30.50;43.20
40538;DHT22;27925;41.874;12.526;2023-09-12T11:31:06;30.50;43.10
40538;DHT22;27925;41.874;12.526;2023-09-12T11:33:32;30.60;43.10
40538;DHT22;27925;41.874;12.526;2023-09-12T11:35:58;30.60;42.80
40538;DHT22;27925;41.874;12.526;2023-09-12T11:38:27;30.60;42.80
40538;DHT22;27925;41.874;12.526;2023-09-12T11:40:54;30.60;42.80
40538;DHT22;27925;41.874;12.526;2023-09-12T11:43:25;30.70;42.90
40538;DHT22;27925;41.874;12.526;2023-09-12T11:45:52;30.80;42.90
40538;DHT22;27925;41.874;12.526;2023-09-12T11:48:19;30.90;42.50
40538;DHT22;27925;41.874;12.526;2023-09-12T11:50:55;30.90;42.00
40538;DHT22;27925;41.874;12.526;2023-09-12T11:53:23;31.00;41.40
40538;DHT22;27925;41.874;12.526;2023-09-12T11:55:56;31.00;41.40
40538;DHT22;27925;41.874;12.526;2023-09-12T11:58:22;31.00;41.50
40538;DHT22;27925;41.874;12.526;2023-09-12T12:00:55;31.10;41.50
40538;DHT22;27925;41.874;12.526;2023-09-12T12:03:26;31.10;40.60
40538;DHT22;27925;41.874;12.526;2023-09-12T12:05:54;31.20;41.30
40538;DHT22;27925;41.874;12.526;2023-09-12T12:08:20;31.20;40.90
40538;DHT22;27925;41.874;12.526;2023-09-12T12:10:52;31.40;40.60
40538;DHT22;27925;41.874;12.526;2023-09-12T12:13:20;31.40;40.30
40538;DHT22;27925;41.874;12.526;2023-09-12T12:15:46;31.40;40.00
40538;DHT22;27925;41.874;12.526;2023-09-12T12:18:12;31.50;39.90
40538;DHT22;27925;41.874;12.526;2023-09-12T12:20:38;31.50;39.60
40538;DHT22;27925;41.874;12.526;2023-09-12T12:23:04;31.50;39.40
40538;DHT22;27925;41.874;12.526;2023-09-12T12:25:33;31.60;39.20
40538;DHT22;27925;41.874;12.526;2023-09-12T12:28:00;31.60;38.90
40538;DHT22;27925;41.874;12.526;2023-09-12T12:30:31;31.60;38.80
40538;DHT22;27925;41.874;12.526;2023-09-12T12:33:00;31.60;38.50
40538;DHT22;27925;41.874;12.526;2023-09-12T12:35:26;31.60;38.60
40538;DHT22;27925;41.874;12.526;2023-09-12T12:37:54;31.70;38.70
40538;DHT22;27925;41.874;12.526;2023-09-12T12:40:21;31.80;38.50
40538;DHT22;27925;41.874;12.526;2023-09-12T12:42:47;31.80;38.60
40538;DHT22;27925;41.874;12.526;2023-09-12T12:45:18;31.90;38.40
40538;DHT22;27925;41.874;12.526;2023-09-12T12:47:44;31.90;38.30
40538;DHT22;27925;41.874;12.526;2023-09-12T12:50:14;31.90;38.30
40538;DHT22;27925;41.874;12.526;2023-09-12T12:52:41;31.90;38.00
40538;DHT22;27925;41.874;12.526;2023-09-12T12:55:11;31.90;38.20
40538;DHT22;27925;41.874;12.526;2023-09-12T12:57:42;31.90;38.20
40538;DHT22;27925;41.874;12.526;2023-09-12T13:00:10;31.90;38.20
40538;DHT22;27925;41.874;12.526;2023-09-12T13:02:39;31.80;38.30
40538;DHT22;27925;41.874;12.526;2023-09-12T13:05:19;31.90;38.70
40538;DHT22;27925;41.874;12.526;2023-09-12T13:07:45;31.90;39.00
40538;DHT22;27925;41.874;12.526;2023-09-12T13:10:12;31.90;39.40
40538;DHT22;27925;41.874;12.526;2023-09-12T13:12:38;31.90;39.80
40538;DHT22;27925;41.874;12.526;2023-09-12T13:15:04;31.90;39.90
40538;DHT22;27925;41.874;12.526;2023-09-12T13:17:30;31.90;40.10
40538;DHT22;27925;41.874;12.526;2023-09-12T13:19:56;31.80;40.30
40538;DHT22;27925;41.874;12.526;2023-09-12T13:22:22;31.80;40.20
40538;DHT22;27925;41.874;12.526;2023-09-12T13:24:47;31.70;40.30
40538;DHT22;27925;41.874;12.526;2023-09-12T13:27:13;31.70;40.20
40538;DHT22;27925;41.874;12.526;2023-09-12T13:29:39;31.60;40.20
40538;DHT22;27925;41.874;12.526;2023-09-12T13:32:05;31.60;40.10
40538;DHT22;27925;41.874;12.526;2023-09-12T13:34:31;31.60;39.80
40538;DHT22;27925;41.874;12.526;2023-09-12T13:36:56;31.60;39.80
40538;DHT22;27925;41.874;12.526;2023-09-12T13:39:24;31.70;40.10
40538;DHT22;27925;41.874;12.526;2023-09-12T13:41:50;31.70;39.90
40538;DHT22;27925;41.874;12.526;2023-09-12T13:44:17;31.70;40.10
40538;DHT22;27925;41.874;12.526;2023-09-12T13:46:42;31.60;39.80
40538;DHT22;27925;41.874;12.526;2023-09-12T13:49:12;31.60;40.10
40538;DHT22;27925;41.874;12.526;2023-09-12T13:51:38;31.50;41.20
40538;DHT22;27925;41.874;12.526;2023-09-12T13:54:04;31.50;40.90
40538;DHT22;27925;41.874;12.526;2023-09-12T13:56:32;31.50;41.10
40538;DHT22;27925;41.874;12.526;2023-09-12T13:58:57;31.50;41.40
40538;DHT22;27925;41.874;12.526;2023-09-12T14:01:23;31.40;41.80
40538;DHT22;27925;41.874;12.526;2023-09-12T14:03:49;31.50;42.10
40538;DHT22;27925;41.874;12.526;2023-09-12T14:06:14;31.40;42.70
40538;DHT22;27925;41.874;12.526;2023-09-12T14:08:40;31.50;43.10
40538;DHT22;27925;41.874;12.526;2023-09-12T14:11:06;31.50;43.10
40538;DHT22;27925;41.874;12.526;2023-09-12T14:13:31;31.50;43.20
40538;DHT22;27925;41.874;12.526;2023-09-12T14:15:57;31.50;43.50
40538;DHT22;27925;41.874;12.526;2023-09-12T14:18:24;31.50;43.70
40538;DHT22;27925;41.874;12.526;2023-09-12T14:20:49;31.50;44.00
40538;DHT22;27925;41.874;12.526;2023-09-12T14:23:16;31.60;44.10
40538;DHT22;27925;41.874;12.526;2023-09-12T14:25:42;31.60;43.80
40538;DHT22;27925;41.874;12.526;2023-09-12T14:28:07;31.50;43.90
40538;DHT22;27925;41.874;12.526;2023-09-12T14:30:33;31.50;43.60
40538;DHT22;27925;41.874;12.526;2023-09-12T14:33:03;31.50;43.20
40538;DHT22;27925;41.874;12.526;2023-09-12T14:35:29;31.40;43.50
40538;DHT22;27925;41.874;12.526;2023-09-12T14:37:55;31.40;43.70
40538;DHT22;27925;41.874;12.526;2023-09-12T14:40:21;31.40;43.90
40538;DHT22;27925;41.874;12.526;2023-09-12T14:42:46;31.40;44.00
40538;DHT22;27925;41.874;12.526;2023-09-12T14:45:13;31.40;43.90
40538;DHT22;27925;41.874;12.526;2023-09-12T14:47:40;31.40;43.70
40538;DHT22;27925;41.874;12.526;2023-09-12T14:50:06;31.40;43.70
40538;DHT22;27925;41.874;12.526;2023-09-12T14:52:31;31.40;43.70
40538;DHT22;27925;41.874;12.526;2023-09-12T14:54:58;31.40;43.90
40538;DHT22;27925;41.874;12.526;2023-09-12T14:57:25;31.40;44.10
40538;DHT22;27925;41.874;12.526;2023-09-12T14:59:51;31.40;44.30
40538;DHT22;27925;41.874;12.526;2023-09-12T15:02:17;31.40;44.10
40538;DHT22;27925;41.874;12.526;2023-09-12T15:04:43;31.30;44.00
40538;DHT22;27925;41.874;12.526;2023-09-12T15:07:08;31.20;44.10
40538;DHT22;27925;41.874;12.526;2023-09-12T15:09:34;31.10;44.20
40538;DHT22;27925;41.874;12.526;2023-09-12T15:12:00;31.20;44.50
40538;DHT22;27925;41.874;12.526;2023-09-12T15:14:25;31.10;44.70
40538;DHT22;27925;41.874;12.526;2023-09-12T15:16:51;31.10;44.90
40538;DHT22;27925;41.874;12.526;2023-09-12T15:19:17;31.10;44.90
40538;DHT22;27925;41.874;12.526;2023-09-12T15:21:43;31.10;44.80
40538;DHT22;27925;41.874;12.526;2023-09-12T15:24:09;31.10;44.90